KFYV/FYV METAR and TAF weather

Enter ICAO airport designator
Station Type Date Time Source
KFYV METAR 2019/08/24 06:53 UTC NOAA

KFYV 240653Z AUTO 00000KT 5SM RA BR FEW017 SCT045 BKN060 22/21 A3003 RMK AO2 RAB45 SLP157 P0002 T02170211


Station Type Date Time Source
KFYV Decoded METAR 2019/08/24 06:53 UTC NOAA

Station name not available
Aug 24, 2019 - 02:53 AM EDT / 2019.08.24 0653 UTC
Wind: Calm:0
Visibility: 5 mile(s):0
Sky conditions: mostly cloudy
Weather: rain; mist
Precipitation last hour: 0.02 inches
Temperature: 71.1 F (21.7 C)
Dew Point: 70.0 F (21.1 C)
Relative Humidity: 96%
Pressure (altimeter): 30.03 in. Hg (1016 hPa)
ob: KFYV 240653Z AUTO 00000KT 5SM RA BR FEW017 SCT045 BKN060 22/21 A3003 RMK AO2 RAB45 SLP157 P0002 T02170211
cycle: 7

Station Type Date Time Source
KFYV TAF 2019/08/24 06:22 UTC NOAA

TAF KFYV 240520Z 2406/2506 04002KT P6SM VCSH OVC050
TEMPO 2408/2412 3SM -TSRA BKN030CB OVC100
FM241200 05002KT P6SM OVC012
TEMPO 2412/2416 3SM -TSRA BKN030CB OVC100
FM241800 11007KT P6SM OVC015
FM242100 13007KT P6SM OVC050

Example: see airport list